Atmospheric History
02/08/2018 18:18  to  2/9/2018 18:18
Change End Date:
To complete the export process:
1) Select all of the data below
2) Copy the data to the clipboard
3) Open a word processor such as Notepad
4) Paste the data into the word processor
5) Save the file

Date/Time (MDT), AirTemp, RH, Dewpoint ,AvgWindSpeed, GustWindSpeed, WindDirection, PrecipType, PrecipIntensity, PrecipAccumulation, PrecipRate
02/09/2018 18:15, 2, 72, 14 ,7, 9, N, None, None, ,  
02/09/2018 18:13, 2, 72, 14 ,6, 9, N, None, None, ,  
02/09/2018 18:05, 2, 72, 14 ,6, 7, N, None, None, ,  
02/09/2018 17:58, 3, 72, 14 ,5, 7, N, None, None, ,  
02/09/2018 17:55, 3, 71, 14 ,6, 7, N, None, None, ,  
02/09/2018 17:45, 3, 71, 14 ,4, 6, N, None, None, ,  
02/09/2018 17:43, 3, 71, 14 ,4, 6, N, None, None, ,  
02/09/2018 17:35, 3, 71, 14 ,4, 6, N, None, None, ,  
02/09/2018 17:28, 3, 71, 14 ,4, 7, N, None, None, ,  
02/09/2018 17:25, 4, 71, 14 ,4, 7, N, None, None, ,  
02/09/2018 17:15, 4, 70, 14 ,5, 7, N, None, None, ,  
02/09/2018 17:13, 4, 70, 14 ,4, 6, N, None, None, ,  
02/09/2018 17:04, 4, 70, 14 ,4, 8, N, Yes, , ,  
02/09/2018 16:58, 4, 69, 14 ,6, 8, N, None, None, ,  
02/09/2018 16:54, 4, 69, 14 ,4, 7, N, None, None, ,  
02/09/2018 16:44, 4, 69, 14 ,4, 6, N, None, None, ,  
02/09/2018 16:43, 4, 69, 14 ,4, 7, N, None, None, ,  
02/09/2018 16:34, 4, 69, 14 ,5, 7, N, None, None, ,  
02/09/2018 16:28, 4, 67, 14 ,6, 7, N, None, None, ,  
02/09/2018 16:24, 4, 67, 14 ,5, 7, N, None, None, ,  
02/09/2018 16:14, 4, 67, 14 ,5, 7, N, None, None, ,  
02/09/2018 16:13, 4, 67, 14 ,5, 7, N, None, None, ,  
02/09/2018 16:04, 4, 67, 14 ,4, 9, N, None, None, ,  
02/09/2018 15:58, 4, 67, 14 ,6, 9, N, None, None, ,  
02/09/2018 15:54, 4, 67, 14 ,7, 9, N, None, None, ,  
02/09/2018 15:44, 4, 68, 14 ,7, 10, N, None, None, ,  
02/09/2018 15:43, 4, 67, 14 ,7, 10, N, None, None, ,  
02/09/2018 15:34, 4, 67, 14 ,8, 11, N, None, None, ,  
02/09/2018 15:28, 4, 66, 14 ,7, 11, N, None, None, ,  
02/09/2018 15:24, 4, 66, 14 ,6, 10, N, None, None, ,  
02/09/2018 15:14, 4, 66, 14 ,6, 9, N, None, None, ,  
02/09/2018 15:13, 4, 66, 14 ,5, 9, N, None, None, ,  
02/09/2018 15:04, 4, 67, 14 ,5, 9, N, None, None, ,  
02/09/2018 14:58, 4, 66, 14 ,7, 9, N, None, None, ,  
02/09/2018 14:54, 4, 66, 14 ,5, 8, N, None, None, ,  
02/09/2018 14:44, 4, 67, 14 ,6, 9, N, None, None, ,  
02/09/2018 14:43, 4, 67, 14 ,7, 9, N, None, None, ,  
02/09/2018 14:34, 4, 66, 14 ,6, 9, N, None, None, ,  
02/09/2018 14:28, 4, 66, 14 ,7, 9, N, None, None, ,  
02/09/2018 14:23, 4, 67, 14 ,6, 9, N, None, None, ,  
02/09/2018 14:13, 3, 67, 14 ,6, 11, N, None, None, ,  
02/09/2018 14:13, 3, 67, 14 ,7, 11, N, None, None, ,  
02/09/2018 14:03, 4, 66, 14 ,9, 11, N, None, None, ,  
02/09/2018 13:58, 4, 65, 14 ,5, 9, N, None, None, ,  
02/09/2018 13:53, 5, 65, 14 ,6, 9, N, None, None, ,  
02/09/2018 13:43, 5, 64, 14 ,4, 6, N, None, None, ,  
02/09/2018 13:43, 6, 64, 14 ,4, 6, N, None, None, ,  
02/09/2018 13:33, 5, 63, 14 ,2, 5, N, None, None, ,  
02/09/2018 13:28, 6, 63, 14 ,3, 5, N, None, None, ,  
02/09/2018 13:23, 5, 63, 14 ,3, 6, N, None, None, ,  
02/09/2018 13:13, 5, 65, 14 ,4, 7, N, None, None, ,  
02/09/2018 13:13, 5, 65, 14 ,4, 7, N, None, None, ,  
02/09/2018 13:03, 4, 64, 14 ,4, 6, N, None, None, ,  
02/09/2018 12:58, 4, 64, 14 ,4, 7, NE, None, None, ,  
02/09/2018 12:53, 4, 65, 14 ,2, 7, N, None, None, ,  
02/09/2018 12:43, 4, 66, 14 ,4, 7, N, None, None, ,  
02/09/2018 12:43, 4, 66, 14 ,4, 7, N, None, None, ,  
02/09/2018 12:33, 3, 68, 14 ,6, 8, N, None, None, ,  
02/09/2018 12:28, 3, 67, 14 ,6, 8, N, None, None, ,  
02/09/2018 12:23, 3, 67, 14 ,6, 9, N, None, None, ,  
02/09/2018 12:13, 2, 68, 14 ,7, 10, N, None, None, ,  
02/09/2018 12:03, 3, 68, 14 ,6, 9, N, None, None, ,  
02/09/2018 11:58, 3, 69, 14 ,7, 9, N, None, None, ,  
02/09/2018 11:53, 3, 67, 14 ,7, 9, N, None, None, ,  
02/09/2018 11:43, 3, 68, 14 ,6, 9, N, None, None, ,  
02/09/2018 11:42, 3, 68, 14 ,6, 9, N, None, None, ,  
02/09/2018 11:32, 3, 68, 14 ,6, 7, N, None, None, ,  
02/09/2018 11:28, 3, 69, 14 ,6, 7, N, None, None, ,  
02/09/2018 11:22, 3, 67, 14 ,5, 7, N, None, None, ,  
02/09/2018 11:13, 3, 59, 14 ,0, 3, W, Yes, , ,  
02/09/2018 11:12, 3, 59, 14 ,0, 3, W, None, None, ,  
02/09/2018 11:02, 3, 59, 14 ,2, 3, SW, None, None, ,  
02/09/2018 10:58, 5, 60, 14 ,1, 3, SW, None, None, ,  
02/09/2018 10:52, 4, 60, 14 ,1, 5, SW, None, None, ,  
02/09/2018 10:43, 3, 63, 14 ,3, 5, S, None, None, ,  
02/09/2018 10:42, 3, 63, 14 ,4, 5, S, None, None, ,  
02/09/2018 10:32, 3, 66, 14 ,4, 6, S, None, None, ,  
02/09/2018 10:28, 2, 67, 14 ,4, 6, S, None, None, ,  
02/09/2018 10:22, 2, 68, 14 ,3, 6, NE, None, None, ,  
02/09/2018 10:13, 2, 69, 14 ,2, 4, SW, None, None, ,  
02/09/2018 10:12, 2, 69, 14 ,2, 4, S, None, None, ,  
02/09/2018 10:02, 1, 70, 14 ,1, 3, S, None, None, ,  
02/09/2018 09:58, 1, 70, 14 ,2, 4, SW, None, None, ,  
02/09/2018 09:52, 1, 70, 14 ,2, 4, SW, None, None, ,  
02/09/2018 09:43, 1, 70, 14 ,1, 4, S, Yes, , ,  
02/09/2018 09:42, 1, 70, 14 ,1, 4, SW, Yes, , ,  
02/09/2018 09:32, 1, 70, 14 ,2, 3, SW, None, None, ,  
02/09/2018 09:28, 1, 71, 14 ,1, 2, SW, None, None, ,  
02/09/2018 09:22, 1, 71, 14 ,1, 2, SW, Yes, , ,  
02/09/2018 09:13, 1, 73, 14 ,0, 1, NW, None, None, ,  
02/09/2018 09:12, 1, 73, 14 ,0, 1, NW, None, None, ,  
02/09/2018 09:02, 1, 73, 14 ,0, 1, NW, Yes, , ,  
02/09/2018 08:58, 0, 74, 14 ,0, 1, N, Yes, , ,  
02/09/2018 08:51, 1, 74, 14 ,0, 3, NE, Yes, , ,  
02/09/2018 08:43, 0, 74, 14 ,2, 3, N, Yes, , ,  
02/09/2018 08:41, 0, 74, 14 ,1, 3, N, Yes, , ,  
02/09/2018 08:31, 0, 74, 14 ,1, 4, N, Yes, , ,  
02/09/2018 08:28, 0, 75, 14 ,2, 4, N, Yes, , ,  
02/09/2018 08:21, 0, 75, 14 ,2, 6, N, Yes, , ,  
02/09/2018 08:13, 0, 74, 14 ,4, 6, NE, Yes, , ,  
02/09/2018 08:11, 0, 74, 14 ,4, 6, NE, Yes, , ,  
02/09/2018 08:01, 0, 74, 14 ,4, 6, N, Yes, , ,  
02/09/2018 07:58, 0, 74, 14 ,2, 7, N, Yes, , ,  
02/09/2018 07:51, 0, 75, 14 ,4, 7, N, None, None, ,  
02/09/2018 07:43, 0, 75, 14 ,3, 7, N, Yes, , ,  
02/09/2018 07:41, 0, 75, 14 ,5, 7, N, Yes, , ,  
02/09/2018 07:31, 0, 76, 14 ,3, 7, N, Yes, , ,  
02/09/2018 07:28, 0, 75, 14 ,6, 7, N, Yes, , ,  
02/09/2018 07:21, 0, 74, 14 ,6, 7, N, Yes, , ,  
02/09/2018 07:13, 0, 74, 14 ,4, 6, N, None, None, ,  
02/09/2018 07:11, 0, 74, 14 ,4, 6, N, Yes, , ,  
02/09/2018 07:01, 0, 75, 14 ,4, 6, N, None, None, ,  
02/09/2018 06:58, 0, 76, 14 ,4, 6, N, Yes, , ,  
02/09/2018 06:51, 0, 77, 14 ,3, 5, N, Yes, , ,  
02/09/2018 06:43, 0, 77, 14 ,3, 4, N, Yes, , ,  
02/09/2018 06:41, 0, 77, 14 ,4, 4, N, Yes, , ,  
02/09/2018 06:31, 0, 77, 14 ,3, 6, N, Yes, , ,  
02/09/2018 06:28, 0, 77, 14 ,4, 6, N, Yes, , ,  
02/09/2018 06:21, 0, 76, 14 ,3, 7, N, Yes, , ,  
02/09/2018 06:13, 0, 76, 14 ,6, 7, N, Yes, , ,  
02/09/2018 06:11, 0, 76, 14 ,3, 7, N, Yes, , ,  
02/09/2018 06:00, 0, 76, 14 ,4, 7, N, Yes, , ,  
02/09/2018 05:58, 0, 76, 14 ,5, 7, N, Yes, , ,  
02/09/2018 05:50, 0, 77, 14 ,4, 6, N, None, None, ,  
02/09/2018 05:43, 0, 76, 14 ,2, 5, N, Yes, , ,  
02/09/2018 05:40, 0, 76, 14 ,3, 5, N, Yes, , ,  
02/09/2018 05:30, 0, 75, 14 ,4, 6, N, Yes, , ,  
02/09/2018 05:28, 0, 74, 14 ,2, 6, N, Yes, , ,  
02/09/2018 05:20, 0, 74, 14 ,4, 6, N, Yes, , ,  
02/09/2018 05:13, 0, 73, 14 ,5, 7, N, Yes, , ,  
02/09/2018 05:10, 0, 74, 14 ,5, 7, N, Yes, , ,  
02/09/2018 05:00, 0, 74, 14 ,4, 6, N, Yes, , ,  
02/09/2018 04:58, 0, 74, 14 ,6, 7, N, Yes, , ,  
02/09/2018 04:50, 0, 75, 14 ,6, 7, N, Yes, , ,  
02/09/2018 04:43, 0, 75, 14 ,5, 7, N, Yes, , ,  
02/09/2018 04:40, 0, 75, 14 ,4, 7, N, Yes, , ,  
02/09/2018 04:30, 0, 74, 14 ,6, 9, N, Yes, , ,  
02/09/2018 04:28, 0, 74, 14 ,6, 7, N, Yes, , ,  
02/09/2018 04:20, 0, 73, 14 ,6, 9, N, Yes, , ,  
02/09/2018 04:13, 0, 73, 14 ,6, 7, N, None, None, ,  
02/09/2018 04:10, 0, 73, 14 ,5, 7, N, Yes, , ,  
02/09/2018 04:00, 0, 74, 14 ,6, 9, N, None, None, ,  
02/09/2018 03:58, 0, 74, 14 ,6, 9, N, Yes, , ,  
02/09/2018 03:50, 0, 74, 14 ,4, 8, N, Yes, , ,  
02/09/2018 03:43, 0, 75, 14 ,4, 9, N, Yes, , ,  
02/09/2018 03:40, 0, 75, 14 ,5, 7, N, Yes, , ,  
02/09/2018 03:30, 0, 76, 14 ,5, 9, NE, Yes, , ,  
02/09/2018 03:28, 0, 76, 14 ,6, 9, N, Yes, , ,  
02/09/2018 03:19, 0, 77, 14 ,7, 9, N, Yes, , ,  
02/09/2018 03:13, 1, 77, 14 ,6, 10, N, Yes, , ,  
02/09/2018 03:09, 0, 77, 14 ,7, 10, N, Yes, , ,  
02/09/2018 02:59, 0, 77, 14 ,7, 9, N, Yes, , ,  
02/09/2018 02:58, 0, 77, 14 ,7, 9, N, Yes, , ,  
02/09/2018 02:49, 0, 77, 14 ,7, 12, N, Yes, , ,  
02/09/2018 02:43, 0, 77, 14 ,8, 11, N, Yes, , ,  
02/09/2018 02:39, 0, 77, 14 ,7, 11, N, Yes, , ,  
02/09/2018 02:29, 0, 77, 14 ,7, 9, N, Yes, , ,  
02/09/2018 02:28, 0, 77, 14 ,7, 9, N, Yes, , ,  
02/09/2018 02:19, 0, 77, 14 ,6, 11, N, Yes, , ,  
02/09/2018 02:13, 1, 76, 14 ,7, 11, N, Yes, , ,  
02/09/2018 02:09, 1, 76, 14 ,9, 11, N, Yes, , ,  
02/09/2018 01:59, 1, 77, 14 ,4, 10, N, Yes, , ,  
02/09/2018 01:58, 1, 77, 14 ,6, 10, N, None, None, ,  
02/09/2018 01:49, 1, 78, 14 ,4, 9, N, None, None, ,  
02/09/2018 01:43, 1, 78, 14 ,5, 7, N, Yes, , ,  
02/09/2018 01:39, 1, 78, 14 ,6, 7, N, Yes, , ,  
02/09/2018 01:29, 1, 78, 14 ,6, 9, N, Yes, , ,  
02/09/2018 01:28, 1, 78, 14 ,7, 9, N, Yes, , ,  
02/09/2018 01:19, 1, 80, 14 ,6, 9, N, Yes, , ,  
02/09/2018 01:13, 1, 81, 14 ,4, 9, N, Yes, , ,  
02/09/2018 01:09, 1, 81, 14 ,7, 9, N, Yes, , ,  
02/09/2018 00:59, 1, 80, 14 ,6, 7, N, Yes, , ,  
02/09/2018 00:58, 1, 80, 14 ,6, 7, N, Yes, , ,  
02/09/2018 00:49, 1, 79, 14 ,6, 7, N, Yes, , ,  
02/09/2018 00:43, 1, 77, 14 ,6, 7, NE, Yes, , ,  
02/09/2018 00:39, 1, 77, 14 ,4, 7, N, Yes, , ,  
02/09/2018 00:28, 1, 77, 14 ,5, 10, N, Yes, , ,  
02/09/2018 00:28, 1, 77, 14 ,4, 10, N, Yes, , ,  
02/09/2018 00:18, 1, 77, 14 ,6, 7, N, Yes, , ,  
02/09/2018 00:13, 1, 76, 14 ,6, 7, N, Yes, , ,  
02/09/2018 00:08, 1, 76, 14 ,4, 7, NW, Yes, , ,  
02/08/2018 23:58, 1, 76, 14 ,6, 10, N, Yes, , ,  
02/08/2018 23:58, 1, 76, 14 ,6, 10, N, Yes, , ,  
02/08/2018 23:48, 1, 77, 14 ,6, 11, N, Yes, , ,  
02/08/2018 23:43, 1, 77, 14 ,6, 12, N, Yes, , ,  
02/08/2018 23:38, 1, 77, 14 ,6, 12, NE, Yes, , ,  
02/08/2018 23:28, 1, 77, 14 ,6, 11, N, Yes, , ,  
02/08/2018 23:28, 1, 77, 14 ,6, 11, N, Yes, , ,  
02/08/2018 23:18, 1, 77, 14 ,7, 12, N, Yes, , ,  
02/08/2018 23:13, 1, 76, 14 ,8, 12, NE, Yes, , ,  
02/08/2018 23:08, 1, 75, 14 ,6, 12, N, Yes, , ,  
02/08/2018 22:58, 2, 75, 14 ,8, 11, N, Yes, , ,  
02/08/2018 22:58, 2, 75, 14 ,8, 11, N, Yes, , ,  
02/08/2018 22:48, 2, 76, 14 ,7, 12, N, Yes, , ,  
02/08/2018 22:43, 2, 76, 14 ,9, 12, N, Yes, , ,  
02/08/2018 22:38, 2, 76, 14 ,9, 11, N, Yes, , ,  
02/08/2018 22:28, 2, 75, 14 ,9, 13, N, Yes, , ,  
02/08/2018 22:28, 2, 75, 14 ,9, 13, N, Yes, , ,  
02/08/2018 22:18, 2, 76, 14 ,9, 14, N, Yes, , ,  
02/08/2018 22:13, 2, 75, 14 ,11, 15, N, Yes, , ,  
02/08/2018 22:08, 2, 76, 14 ,11, 15, N, Yes, , ,  
02/08/2018 21:58, 2, 77, 14 ,8, 15, N, Yes, , ,  
02/08/2018 21:58, 2, 77, 14 ,8, 15, N, Yes, , ,  
02/08/2018 21:48, 2, 76, 14 ,11, 14, N, Yes, , ,  
02/08/2018 21:43, 2, 75, 14 ,7, 13, NE, Yes, , ,  
02/08/2018 21:38, 2, 75, 14 ,9, 12, N, Yes, , ,  
02/08/2018 21:28, 3, 74, 14 ,9, 10, N, Yes, , ,  
02/08/2018 21:27, 3, 74, 14 ,7, 10, N, Yes, , ,  
02/08/2018 21:17, 3, 73, 14 ,9, 14, N, Yes, , ,  
02/08/2018 21:13, 3, 72, 14 ,7, 14, N, None, None, ,  
02/08/2018 21:07, 3, 71, 14 ,8, 12, N, None, None, ,  
02/08/2018 20:58, 3, 72, 14 ,6, 9, N, Yes, , ,  
02/08/2018 20:57, 3, 72, 14 ,5, 9, N, None, None, ,  
02/08/2018 20:47, 3, 73, 14 ,5, 11, N, Yes, , ,  
02/08/2018 20:43, 3, 74, 14 ,6, 11, N, Yes, , ,  
02/08/2018 20:37, 3, 75, 14 ,6, 9, N, Yes, , ,  
02/08/2018 20:28, 3, 76, 14 ,6, 10, N, Yes, , ,  
02/08/2018 20:27, 3, 76, 14 ,6, 12, N, Yes, , ,  
02/08/2018 20:17, 3, 76, 14 ,9, 12, N, Yes, , ,  
02/08/2018 20:13, 3, 75, 14 ,8, 12, N, Yes, , ,  
02/08/2018 20:07, 3, 74, 14 ,6, 13, N, Yes, , ,  
02/08/2018 19:58, 3, 73, 14 ,7, 14, N, Yes, , ,  
02/08/2018 19:57, 3, 73, 14 ,7, 14, N, Yes, , ,  
02/08/2018 19:47, 3, 73, 14 ,11, 16, N, Yes, , ,  
02/08/2018 19:43, 3, 72, 14 ,9, 15, N, Yes, , ,  
02/08/2018 19:37, 3, 73, 14 ,9, 15, N, None, None, ,  
02/08/2018 19:28, 3, 71, 14 ,9, 14, NE, None, None, ,  
02/08/2018 19:27, 3, 71, 14 ,11, 14, N, Yes, , ,  
02/08/2018 19:17, 4, 71, 14 ,6, 12, N, Yes, , ,  
02/08/2018 19:13, 4, 70, 14 ,6, 16, N, Yes, , ,  
02/08/2018 19:07, 4, 70, 14 ,9, 16, N, None, None, ,  
02/08/2018 18:58, 4, 70, 14 ,7, 14, N, None, None, ,  
02/08/2018 18:57, 4, 69, 14 ,7, 14, N, Yes, , ,  
02/08/2018 18:46, 4, 70, 14 ,9, 14, N, Yes, , ,  
02/08/2018 18:43, 4, 71, 14 ,10, 14, N, Yes, , ,  
02/08/2018 18:36, 4, 72, 14 ,9, 12, N, Yes, , ,  
02/08/2018 18:28, 4, 73, 14 ,7, 11, N, None, None, ,  
02/08/2018 18:26, 4, 73, 14 ,7, 11, N, Yes, , ,  
Change End Date:

Copyright © 1998-2015 Vaisala, Inc.
All Rights Reserved
Send comments about the data to:
SCAN Web ® is a registered trademark of Vaisala, Inc.
SCAN Web Version 6.0